Time;durP1;ratioP1;P1;durP2;ratioP2;P2;SDS_P1;SDS_P2;PMS_P1;PMS_P2;Temp;Humidity;BMP_temperature;BMP_pressure;BME280_temperature;BME280_humidity;BME280_pressure;Samples;Min_cycle;Max_cycle;Signal;HPM_P1;HPM_P2
2023/05/06 00:01:55;;;;;;;;;;;14.90;88.50;;;;;;4943207;29;19914;-96
2023/05/06 00:04:22;;;;;;;;;;;14.90;89.40;;;;;;4942818;29;19939;-96
2023/05/06 00:06:48;;;;;;;;;;;14.90;89.40;;;;;;4943010;29;19911;-96
2023/05/06 00:09:16;;;;;;;;;;;14.90;89.30;;;;;;4943460;29;19918;-96
2023/05/06 00:11:50;;;;;;;;;;;14.80;89.10;;;;;;4943744;29;19915;-96
2023/05/06 00:14:19;;;;;;;;;;;14.80;89.70;;;;;;4943459;29;19910;-96
2023/05/06 00:16:49;;;;;;;;;;;14.70;89.80;;;;;;4942185;29;19918;-96
2023/05/06 00:19:18;;;;;;;;;;;14.60;89.90;;;;;;4943283;29;19915;-96
2023/05/06 00:21:49;;;;;;;;;;;14.60;90.30;;;;;;4942346;29;19911;-96
2023/05/06 00:26:54;;;;;;;;;;;14.50;89.60;;;;;;4966352;23;19939;-96
2023/05/06 00:29:26;;;;;;;;;;;14.60;89.40;;;;;;4943492;29;19911;-96
2023/05/06 00:31:53;;;;;;;;;;;14.60;90.00;;;;;;4942858;29;19943;-96
2023/05/06 00:34:19;;;;;;;;;;;14.50;90.60;;;;;;4923795;29;19994;-96
2023/05/06 00:36:48;;;;;;;;;;;14.60;90.00;;;;;;4924792;29;19911;-96
2023/05/06 00:39:15;;;;;;;;;;;14.60;89.20;;;;;;4924526;29;19926;-96
2023/05/06 00:41:43;;;;;;;;;;;14.60;88.80;;;;;;4924082;29;19911;-96
2023/05/06 00:44:12;;;;;;;;;;;14.60;88.70;;;;;;4924737;29;19919;-96
2023/05/06 00:46:38;;;;;;;;;;;14.60;88.70;;;;;;4924081;29;19911;-96
2023/05/06 00:49:12;;;;;;;;;;;14.50;89.00;;;;;;4923699;29;19912;-96
2023/05/06 00:51:45;;;;;;;;;;;14.40;89.60;;;;;;4923624;29;19966;-96
2023/05/06 00:54:12;;;;;;;;;;;14.50;89.20;;;;;;4922877;29;19926;-96
2023/05/06 00:56:40;;;;;;;;;;;14.50;89.20;;;;;;4924028;29;19911;-96
2023/05/06 00:59:07;;;;;;;;;;;14.40;88.80;;;;;;4923960;29;19919;-96
2023/05/06 01:01:36;;;;;;;;;;;14.30;88.90;;;;;;4923717;29;19911;-96
2023/05/06 01:04:06;;;;;;;;;;;14.20;89.70;;;;;;4923597;29;19970;-96
2023/05/06 01:06:49;;;;;;;;;;;14.20;90.20;;;;;;4923504;29;19912;-96
2023/05/06 01:09:25;;;;;;;;;;;14.30;90.00;;;;;;4923691;29;19918;-96
2023/05/06 01:11:58;;;;;;;;;;;14.30;90.30;;;;;;4923052;29;19945;-96
2023/05/06 01:14:31;;;;;;;;;;;14.30;90.60;;;;;;4923351;29;19911;-96
2023/05/06 01:16:59;;;;;;;;;;;14.30;89.90;;;;;;4923272;29;19915;-96
2023/05/06 01:19:45;;;;;;;;;;;14.30;89.80;;;;;;4923348;29;19919;-96
2023/05/06 01:22:22;;;;;;;;;;;14.20;90.00;;;;;;4940398;29;19911;-96
2023/05/06 01:24:49;;;;;;;;;;;14.20;90.10;;;;;;4923672;29;19918;-96
2023/05/06 01:27:18;;;;;;;;;;;14.20;90.10;;;;;;4923806;29;19895;-96
2023/05/06 01:29:49;;;;;;;;;;;14.10;89.90;;;;;;4907905;29;19939;-96
2023/05/06 01:32:18;;;;;;;;;;;14.20;90.20;;;;;;4923308;29;19927;-96
2023/05/06 01:34:59;;;;;;;;;;;14.10;89.90;;;;;;4923070;29;19953;-96
2023/05/06 01:37:45;;;;;;;;;;;14.10;89.50;;;;;;4922888;29;19934;-96
2023/05/06 01:40:11;;;;;;;;;;;14.10;89.70;;;;;;4923811;29;19979;-96
2023/05/06 01:42:39;;;;;;;;;;;14.20;89.30;;;;;;4923593;29;19911;-96
2023/05/06 01:45:07;;;;;;;;;;;14.20;89.20;;;;;;4923544;29;19911;-96
2023/05/06 01:47:35;;;;;;;;;;;14.20;89.20;;;;;;4907689;29;19915;-96
2023/05/06 01:50:03;;;;;;;;;;;14.20;89.00;;;;;;4923255;29;19918;-96
2023/05/06 01:52:30;;;;;;;;;;;14.00;89.40;;;;;;4922292;29;19912;-96
2023/05/06 01:54:58;;;;;;;;;;;14.00;89.30;;;;;;4922802;29;19919;-96
2023/05/06 01:57:28;;;;;;;;;;;13.90;89.30;;;;;;4922951;29;19954;-96
2023/05/06 01:59:59;;;;;;;;;;;13.90;89.10;;;;;;4922169;29;19916;-96
2023/05/06 02:02:25;;;;;;;;;;;13.90;89.10;;;;;;4921822;29;19911;-96
2023/05/06 02:04:52;;;;;;;;;;;13.90;89.30;;;;;;4921044;29;19896;-96
2023/05/06 02:07:19;;;;;;;;;;;13.90;89.00;;;;;;4920865;29;19918;-96
2023/05/06 02:09:48;;;;;;;;;;;13.70;89.10;;;;;;4921530;29;20005;-96
2023/05/06 02:12:14;;;;;;;;;;;13.60;89.40;;;;;;4921757;29;19911;-96
2023/05/06 02:14:41;;;;;;;;;;;13.60;89.70;;;;;;4921802;29;19911;-96
2023/05/06 02:17:08;;;;;;;;;;;13.60;90.10;;;;;;4920566;29;19911;-96
2023/05/06 02:19:34;;;;;;;;;;;13.60;90.50;;;;;;4921793;29;19915;-96
2023/05/06 02:22:02;;;;;;;;;;;13.60;90.00;;;;;;4921314;29;19950;-96
2023/05/06 02:24:29;;;;;;;;;;;13.50;90.30;;;;;;4921407;29;19918;-96
2023/05/06 02:26:55;;;;;;;;;;;13.40;90.40;;;;;;4939061;29;19982;-96
2023/05/06 02:29:21;;;;;;;;;;;13.40;90.50;;;;;;4940462;29;19934;-96
2023/05/06 02:31:47;;;;;;;;;;;13.40;90.60;;;;;;4940720;29;19946;-96
2023/05/06 02:34:20;;;;;;;;;;;13.40;90.30;;;;;;4957682;29;19915;-96
2023/05/06 02:36:50;;;;;;;;;;;13.40;90.80;;;;;;4940873;29;19910;-96
2023/05/06 02:39:16;;;;;;;;;;;13.40;90.30;;;;;;4925684;29;19945;-96
2023/05/06 02:41:43;;;;;;;;;;;13.40;90.20;;;;;;4940446;29;19957;-96
2023/05/06 02:44:09;;;;;;;;;;;13.40;90.30;;;;;;4957477;29;19918;-96
2023/05/06 02:46:38;;;;;;;;;;;13.40;90.60;;;;;;4940540;29;19911;-96
2023/05/06 02:49:05;;;;;;;;;;;13.30;90.70;;;;;;4940866;29;19917;-96
2023/05/06 02:51:32;;;;;;;;;;;13.40;90.00;;;;;;4939669;29;19926;-96
2023/05/06 02:53:59;;;;;;;;;;;13.50;89.50;;;;;;4940783;29;19911;-96
2023/05/06 02:56:28;;;;;;;;;;;13.40;89.10;;;;;;4940972;29;19918;-96
2023/05/06 02:58:54;;;;;;;;;;;13.30;89.60;;;;;;4940696;29;19915;-96
2023/05/06 03:01:21;;;;;;;;;;;13.30;89.30;;;;;;4941703;29;19910;-96
2023/05/06 03:03:47;;;;;;;;;;;13.40;88.90;;;;;;4941157;29;19966;-96
2023/05/06 03:06:16;;;;;;;;;;;13.30;88.70;;;;;;4941222;29;19895;-96
2023/05/06 03:08:44;;;;;;;;;;;13.30;89.00;;;;;;4957544;29;19945;-96
2023/05/06 03:11:11;;;;;;;;;;;13.20;89.10;;;;;;4940764;29;19910;-96
2023/05/06 03:13:37;;;;;;;;;;;13.20;89.30;;;;;;4939941;29;19921;-96
2023/05/06 03:16:05;;;;;;;;;;;13.10;89.40;;;;;;4941540;29;19954;-96
2023/05/06 03:18:32;;;;;;;;;;;13.10;89.40;;;;;;4945065;29;19915;-96
2023/05/06 03:21:00;;;;;;;;;;;13.00;89.30;;;;;;4945192;29;19970;-96
2023/05/06 03:23:27;;;;;;;;;;;13.00;89.30;;;;;;4944125;29;19911;-96
2023/05/06 03:25:58;;;;;;;;;;;13.00;89.30;;;;;;4943682;29;19922;-96
2023/05/06 03:28:25;;;;;;;;;;;12.90;89.40;;;;;;4944382;29;19918;-96
2023/05/06 03:30:53;;;;;;;;;;;12.90;89.40;;;;;;4944521;29;20004;-96
2023/05/06 03:33:19;;;;;;;;;;;12.90;89.30;;;;;;4943929;29;19911;-96
2023/05/06 03:35:49;;;;;;;;;;;12.90;90.40;;;;;;4943607;29;19911;-96
2023/05/06 03:38:17;;;;;;;;;;;12.90;90.50;;;;;;4943514;29;19914;-96
2023/05/06 03:40:50;;;;;;;;;;;12.90;90.10;;;;;;4943857;29;19911;-96
2023/05/06 03:43:16;;;;;;;;;;;12.90;89.90;;;;;;4943412;29;19911;-96
2023/05/06 03:45:43;;;;;;;;;;;12.80;90.10;;;;;;4943580;29;19918;-96
2023/05/06 03:48:09;;;;;;;;;;;12.90;91.10;;;;;;4943718;29;19895;-96
2023/05/06 03:50:36;;;;;;;;;;;12.90;90.60;;;;;;4943995;29;19895;-96
2023/05/06 03:53:05;;;;;;;;;;;12.80;90.40;;;;;;4943686;29;19917;-96
2023/05/06 03:55:32;;;;;;;;;;;12.80;91.10;;;;;;4943572;29;19911;-96
2023/05/06 03:58:01;;;;;;;;;;;12.90;91.10;;;;;;4943480;29;19911;-96
2023/05/06 04:00:34;;;;;;;;;;;12.90;91.10;;;;;;4960339;29;19911;-96
2023/05/06 04:03:22;;;;;;;;;;;12.80;90.60;;;;;;4960550;29;19926;-96
2023/05/06 04:05:52;;;;;;;;;;;12.80;90.50;;;;;;4945186;29;19911;-96
2023/05/06 04:08:24;;;;;;;;;;;12.70;90.40;;;;;;4961101;29;19966;-96
2023/05/06 04:10:54;;;;;;;;;;;12.70;90.40;;;;;;4944200;29;19911;-96
2023/05/06 04:13:21;;;;;;;;;;;12.70;90.60;;;;;;4944498;29;19939;-96
2023/05/06 04:15:49;;;;;;;;;;;12.80;91.10;;;;;;4944129;29;19922;-96
2023/05/06 04:18:17;;;;;;;;;;;12.90;92.00;;;;;;4943805;29;20379;-96
2023/05/06 04:20:45;;;;;;;;;;;12.90;91.70;;;;;;4943582;29;19918;-96
2023/05/06 04:23:15;;;;;;;;;;;12.90;92.00;;;;;;4960837;29;19949;-96
2023/05/06 04:25:47;;;;;;;;;;;13.00;92.30;;;;;;4943880;29;19923;-96
2023/05/06 04:28:17;;;;;;;;;;;13.10;92.20;;;;;;4942989;29;19970;-96
2023/05/06 04:30:46;;;;;;;;;;;13.20;92.10;;;;;;4943693;29;19946;-96
2023/05/06 04:33:12;;;;;;;;;;;13.40;92.40;;;;;;4943258;29;19911;-96
2023/05/06 04:35:49;;;;;;;;;;;13.40;92.60;;;;;;4943584;29;19911;-96
2023/05/06 04:38:16;;;;;;;;;;;13.40;92.20;;;;;;4943153;29;19915;-96
2023/05/06 04:40:50;;;;;;;;;;;13.40;92.10;;;;;;4944209;29;19918;-96
2023/05/06 04:43:29;;;;;;;;;;;13.50;92.10;;;;;;4944936;29;19903;-96
2023/05/06 04:45:57;;;;;;;;;;;13.50;91.80;;;;;;4929570;29;19895;-96
2023/05/06 04:48:32;;;;;;;;;;;13.50;91.70;;;;;;4961244;29;19901;-96
2023/05/06 04:51:12;;;;;;;;;;;13.60;91.70;;;;;;4960824;29;20005;-96
2023/05/06 04:53:40;;;;;;;;;;;13.60;92.10;;;;;;4944345;29;20315;-96
2023/05/06 04:56:14;;;;;;;;;;;13.80;91.90;;;;;;4944758;29;19911;-96
2023/05/06 04:58:50;;;;;;;;;;;13.80;91.50;;;;;;4961134;28;19930;-96
2023/05/06 05:01:39;;;;;;;;;;;13.80;91.20;;;;;;4958126;29;19979;-96
2023/05/06 05:17:44;;;;;;;;;;;14.10;91.60;;;;;;5436977;23;19948;-96
2023/05/06 05:20:18;;;;;;;;;;;14.20;91.90;;;;;;4961060;29;19985;-96
2023/05/06 05:22:57;;;;;;;;;;;14.30;92.00;;;;;;4964009;29;19920;-96
2023/05/06 05:25:28;;;;;;;;;;;14.40;91.80;;;;;;4980816;28;19911;-96
2023/05/06 05:28:01;;;;;;;;;;;14.40;91.50;;;;;;4941224;29;19903;-96
2023/05/06 05:30:33;;;;;;;;;;;14.40;91.30;;;;;;4941418;28;19923;-96
2023/05/06 05:33:13;;;;;;;;;;;14.50;91.50;;;;;;4936490;28;19911;-96
2023/05/06 05:35:43;;;;;;;;;;;14.60;91.60;;;;;;4924855;29;19919;-96
2023/05/06 05:38:16;;;;;;;;;;;14.70;91.60;;;;;;4941066;29;19915;-96
2023/05/06 05:40:44;;;;;;;;;;;14.80;91.20;;;;;;4939949;29;19924;-96
2023/05/06 05:43:18;;;;;;;;;;;14.90;91.30;;;;;;4938830;29;19911;-96
2023/05/06 05:46:01;;;;;;;;;;;15.00;91.00;;;;;;4919009;29;19955;-96
2023/05/06 05:48:31;;;;;;;;;;;15.10;90.90;;;;;;4904853;29;19916;-96
2023/05/06 05:51:08;;;;;;;;;;;15.20;90.60;;;;;;4922142;29;19935;-96
2023/05/06 06:42:22;;;;;;;;;;;16.70;85.90;;;;;;5212103;23;19925;-96
2023/05/06 06:45:00;;;;;;;;;;;16.80;85.20;;;;;;4947209;29;19907;-96
2023/05/06 06:47:31;;;;;;;;;;;16.80;85.50;;;;;;4943086;29;19938;-96
2023/05/06 06:49:59;;;;;;;;;;;16.90;86.00;;;;;;4942919;29;19902;-96
2023/05/06 06:52:30;;;;;;;;;;;16.80;86.50;;;;;;4963989;28;19899;-96
2023/05/06 06:55:02;;;;;;;;;;;16.90;87.00;;;;;;4948394;29;19921;-96
2023/05/06 07:00:11;;;;;;;;;;;16.90;86.20;;;;;;5215797;23;19927;-96
2023/05/06 07:02:39;;;;;;;;;;;16.90;86.20;;;;;;4967639;28;19899;-96
2023/05/06 07:05:11;;;;;;;;;;;17.00;86.60;;;;;;4963441;28;19898;-96
2023/05/06 07:07:41;;;;;;;;;;;17.00;86.70;;;;;;4983326;28;19904;-96
2023/05/06 07:12:45;;;;;;;;;;;17.30;87.20;;;;;;5299553;23;19917;-96
2023/05/06 07:15:14;;;;;;;;;;;17.30;87.00;;;;;;4967207;28;19922;-96
2023/05/06 07:17:44;;;;;;;;;;;17.40;86.60;;;;;;4967243;28;19905;-96
2023/05/06 07:20:11;;;;;;;;;;;17.50;86.50;;;;;;5132883;23;19910;-96
2023/05/06 09:05:21;;;;;;;;;;;20.80;75.20;;;;;;3781430;23;20208;-96
2023/05/06 09:08:03;;;;;;;;;;;20.90;73.40;;;;;;4942377;29;19923;-96
2023/05/06 09:11:02;;;;;;;;;;;20.90;73.40;;;;;;4961143;29;19975;-96
2023/05/06 09:13:32;;;;;;;;;;;21.00;74.60;;;;;;4957772;29;19902;-96
2023/05/06 09:16:05;;;;;;;;;;;21.10;74.20;;;;;;4945052;29;19970;-96
2023/05/06 09:18:43;;;;;;;;;;;21.20;72.60;;;;;;4944424;29;19919;-96
2023/05/06 09:21:16;;;;;;;;;;;21.20;72.40;;;;;;4961186;29;19895;-96
2023/05/06 09:23:56;;;;;;;;;;;21.30;71.10;;;;;;4961451;28;19911;-96
2023/05/06 09:26:36;;;;;;;;;;;21.40;72.20;;;;;;4960746;29;19975;-96
2023/05/06 09:29:15;;;;;;;;;;;21.50;68.10;;;;;;4929584;29;19924;-96
2023/05/06 09:36:55;;;;;;;;;;;21.80;70.30;;;;;;5718955;23;19950;-96
2023/05/06 09:39:35;;;;;;;;;;;21.90;71.50;;;;;;4978248;29;19918;-96
2023/05/06 09:42:05;;;;;;;;;;;21.90;68.00;;;;;;4961228;29;19943;-96
2023/05/06 09:44:31;;;;;;;;;;;22.10;71.10;;;;;;4949146;29;19902;-96
2023/05/06 09:47:01;;;;;;;;;;;22.10;67.80;;;;;;4942134;29;19915;-96
2023/05/06 09:49:28;;;;;;;;;;;22.20;69.40;;;;;;4941285;29;19922;-96
2023/05/06 09:51:56;;;;;;;;;;;22.30;68.70;;;;;;4957721;29;19938;-96
2023/05/06 09:54:41;;;;;;;;;;;22.30;68.10;;;;;;4957757;29;19910;-96
2023/05/06 09:57:09;;;;;;;;;;;22.40;67.40;;;;;;4941766;29;19938;-96
2023/05/06 09:59:41;;;;;;;;;;;22.50;68.30;;;;;;4940799;29;20371;-96
2023/05/06 10:02:16;;;;;;;;;;;22.60;69.70;;;;;;4941940;29;19922;-96
2023/05/06 10:04:45;;;;;;;;;;;22.70;70.10;;;;;;4941940;29;19913;-96
2023/05/06 10:07:17;;;;;;;;;;;22.80;69.20;;;;;;4942138;29;19939;-96
2023/05/06 10:09:50;;;;;;;;;;;22.90;69.20;;;;;;4942805;29;19966;-96
2023/05/06 10:12:24;;;;;;;;;;;23.00;65.80;;;;;;4942625;29;19975;-96
2023/05/06 10:14:51;;;;;;;;;;;23.10;66.60;;;;;;4959207;29;19918;-96
2023/05/06 10:17:21;;;;;;;;;;;23.10;63.70;;;;;;4941578;29;19917;-96
2023/05/06 10:19:54;;;;;;;;;;;23.30;66.80;;;;;;4941078;29;19970;-96
2023/05/06 10:22:21;;;;;;;;;;;23.30;65.80;;;;;;4938562;29;19917;-96
2023/05/06 10:25:04;;;;;;;;;;;23.30;68.10;;;;;;4939467;29;19938;-96
2023/05/06 10:27:33;;;;;;;;;;;23.30;63.50;;;;;;4939503;29;19911;-96
2023/05/06 10:29:59;;;;;;;;;;;23.20;65.00;;;;;;4935848;29;19961;-96
2023/05/06 10:32:29;;;;;;;;;;;23.10;63.10;;;;;;4934877;29;19918;-96
2023/05/06 10:34:56;;;;;;;;;;;23.10;65.80;;;;;;4936154;29;19911;-96
2023/05/06 10:37:27;;;;;;;;;;;23.20;68.20;;;;;;4936026;29;19929;-96
2023/05/06 10:39:53;;;;;;;;;;;23.30;65.90;;;;;;4952023;29;19937;-96
2023/05/06 10:42:19;;;;;;;;;;;23.30;61.30;;;;;;4952453;29;19911;-96
2023/05/06 10:44:58;;;;;;;;;;;23.30;61.10;;;;;;4953105;29;19918;-96
2023/05/06 10:47:24;;;;;;;;;;;23.30;59.80;;;;;;4935793;29;19910;-96
2023/05/06 10:50:29;;;;;;;;;;;23.40;62.00;;;;;;4932431;29;20323;-96
2023/05/06 10:52:55;;;;;;;;;;;23.30;60.30;;;;;;4891271;29;19912;-96
2023/05/06 10:55:31;;;;;;;;;;;23.40;59.80;;;;;;4876907;29;19912;-96
2023/05/06 10:58:14;;;;;;;;;;;23.40;58.90;;;;;;4907904;29;19938;-96
2023/05/06 11:00:40;;;;;;;;;;;23.50;61.10;;;;;;4934243;29;19910;-96
2023/05/06 11:03:08;;;;;;;;;;;23.60;60.10;;;;;;4934724;29;19998;-96
2023/05/06 11:05:45;;;;;;;;;;;23.70;60.20;;;;;;4933874;29;19918;-96
2023/05/06 11:08:11;;;;;;;;;;;23.70;59.70;;;;;;4934545;29;19978;-96
2023/05/06 11:10:37;;;;;;;;;;;23.80;62.80;;;;;;4935271;29;19918;-96
2023/05/06 11:13:35;;;;;;;;;;;24.00;61.30;;;;;;4933700;29;20410;-96
2023/05/06 11:16:01;;;;;;;;;;;24.00;58.90;;;;;;4919421;29;19946;-96
2023/05/06 11:18:28;;;;;;;;;;;24.00;56.80;;;;;;4934594;29;19939;-96
2023/05/06 11:21:00;;;;;;;;;;;24.20;55.70;;;;;;4934033;29;19911;-96
2023/05/06 11:23:41;;;;;;;;;;;24.30;57.00;;;;;;4952065;29;19935;-96
2023/05/06 11:26:10;;;;;;;;;;;24.40;58.10;;;;;;4936104;29;19918;-96
2023/05/06 11:28:37;;;;;;;;;;;24.60;57.50;;;;;;4952050;29;19911;-96
2023/05/06 11:31:03;;;;;;;;;;;24.70;56.50;;;;;;4933172;29;20009;-96
2023/05/06 11:33:33;;;;;;;;;;;24.90;57.10;;;;;;4933042;29;19910;-96
2023/05/06 11:35:59;;;;;;;;;;;24.90;61.40;;;;;;4934746;29;19911;-96
2023/05/06 11:38:45;;;;;;;;;;;24.90;55.50;;;;;;4954216;29;19930;-96
2023/05/06 11:41:11;;;;;;;;;;;25.00;58.00;;;;;;4954563;29;19911;-96
2023/05/06 11:43:37;;;;;;;;;;;25.20;55.90;;;;;;4954920;29;19915;-96
2023/05/06 11:46:03;;;;;;;;;;;25.20;54.10;;;;;;4937243;29;19911;-96
2023/05/06 11:48:29;;;;;;;;;;;25.10;54.70;;;;;;4936828;29;19970;-96
2023/05/06 11:50:55;;;;;;;;;;;25.20;58.00;;;;;;4936859;29;19911;-96
2023/05/06 11:53:22;;;;;;;;;;;25.20;55.10;;;;;;4936919;29;19910;-96
2023/05/06 11:55:57;;;;;;;;;;;25.30;53.80;;;;;;4937489;29;19922;-96
2023/05/06 11:58:26;;;;;;;;;;;25.50;55.00;;;;;;4939019;29;19922;-96
2023/05/06 12:00:53;;;;;;;;;;;25.80;52.20;;;;;;4937351;29;19911;-96
2023/05/06 12:03:20;;;;;;;;;;;25.90;53.30;;;;;;4937247;29;19939;-96
2023/05/06 12:05:49;;;;;;;;;;;26.10;53.80;;;;;;4938311;29;19986;-96
2023/05/06 12:08:19;;;;;;;;;;;26.20;53.20;;;;;;4938493;29;20009;-96
2023/05/06 12:10:46;;;;;;;;;;;26.40;51.00;;;;;;4938160;29;19953;-96
2023/05/06 12:13:13;;;;;;;;;;;26.70;51.50;;;;;;4955908;29;19911;-96
2023/05/06 12:15:42;;;;;;;;;;;27.00;53.40;;;;;;4938925;29;19949;-96
2023/05/06 12:18:12;;;;;;;;;;;27.30;52.40;;;;;;4937586;29;19918;-96
2023/05/06 12:20:38;;;;;;;;;;;27.40;47.90;;;;;;4938489;29;19915;-96
2023/05/06 12:23:07;;;;;;;;;;;27.60;50.20;;;;;;4938838;29;19911;-96
2023/05/06 12:25:33;;;;;;;;;;;27.70;48.80;;;;;;4938591;29;19919;-96
2023/05/06 12:27:59;;;;;;;;;;;27.50;51.70;;;;;;4954930;29;19970;-96
2023/05/06 12:30:31;;;;;;;;;;;27.40;49.30;;;;;;4938587;29;19915;-96
2023/05/06 12:32:58;;;;;;;;;;;27.20;47.70;;;;;;4955266;29;19962;-96
2023/05/06 12:35:28;;;;;;;;;;;27.30;48.80;;;;;;4955742;29;19974;-96
2023/05/06 12:37:54;;;;;;;;;;;27.70;49.90;;;;;;4938526;29;19930;-96
2023/05/06 12:40:21;;;;;;;;;;;28.20;49.20;;;;;;4938494;29;19922;-96
2023/05/06 12:42:56;;;;;;;;;;;28.30;47.20;;;;;;4939306;29;19982;-96
2023/05/06 12:45:25;;;;;;;;;;;28.60;45.50;;;;;;4937742;29;19962;-96
2023/05/06 12:47:55;;;;;;;;;;;28.70;43.80;;;;;;4937828;29;19917;-96
2023/05/06 12:50:43;;;;;;;;;;;29.10;44.00;;;;;;4938830;29;19917;-96
2023/05/06 12:53:12;;;;;;;;;;;29.70;44.10;;;;;;4939981;29;19910;-96
2023/05/06 12:55:40;;;;;;;;;;;30.10;44.40;;;;;;4938891;29;19909;-96
2023/05/06 12:58:18;;;;;;;;;;;29.90;42.30;;;;;;4938846;29;19917;-96
2023/05/06 13:00:45;;;;;;;;;;;30.20;43.80;;;;;;4939303;29;19911;-96
2023/05/06 13:03:14;;;;;;;;;;;30.70;40.20;;;;;;4940438;29;19927;-96
2023/05/06 13:05:40;;;;;;;;;;;31.10;40.20;;;;;;4940352;29;19911;-96
2023/05/06 13:08:06;;;;;;;;;;;31.20;39.90;;;;;;4940552;29;19915;-96
2023/05/06 13:10:33;;;;;;;;;;;31.70;40.80;;;;;;4940377;29;19895;-96
2023/05/06 13:13:02;;;;;;;;;;;32.00;40.30;;;;;;4940804;29;19911;-96
2023/05/06 13:15:37;;;;;;;;;;;31.70;40.50;;;;;;4940357;29;19915;-96
2023/05/06 13:18:03;;;;;;;;;;;31.40;42.90;;;;;;4939183;29;19950;-96
2023/05/06 13:20:31;;;;;;;;;;;31.10;44.00;;;;;;4939642;29;19911;-96
2023/05/06 13:22:59;;;;;;;;;;;30.80;42.30;;;;;;4957370;29;19979;-96
2023/05/06 13:25:32;;;;;;;;;;;31.00;41.60;;;;;;4941307;29;19918;-96
2023/05/06 13:28:04;;;;;;;;;;;30.90;41.10;;;;;;4957418;29;19915;-96
2023/05/06 13:30:31;;;;;;;;;;;31.30;41.40;;;;;;4941989;29;19927;-96
2023/05/06 13:32:58;;;;;;;;;;;31.70;41.50;;;;;;4940810;29;19917;-96
2023/05/06 13:35:27;;;;;;;;;;;31.50;41.00;;;;;;4940273;29;19911;-96
2023/05/06 13:37:58;;;;;;;;;;;31.30;40.10;;;;;;4941115;29;19927;-96
2023/05/06 13:40:24;;;;;;;;;;;31.60;44.60;;;;;;4941704;29;19915;-96
2023/05/06 13:43:00;;;;;;;;;;;32.10;42.80;;;;;;4941790;29;19911;-96
2023/05/06 13:45:29;;;;;;;;;;;32.40;39.50;;;;;;4940122;29;19911;-96
2023/05/06 13:48:09;;;;;;;;;;;32.20;41.00;;;;;;4940266;29;19911;-96
2023/05/06 13:50:45;;;;;;;;;;;31.80;40.10;;;;;;4941412;29;20030;-96
2023/05/06 13:53:13;;;;;;;;;;;31.70;40.90;;;;;;4958840;29;19911;-96
2023/05/06 13:55:48;;;;;;;;;;;32.00;39.30;;;;;;4942372;29;19901;-96
2023/05/06 13:58:17;;;;;;;;;;;32.40;40.20;;;;;;4926447;29;19922;-96
2023/05/06 14:00:48;;;;;;;;;;;32.40;39.20;;;;;;4926384;29;19915;-96
2023/05/06 14:03:14;;;;;;;;;;;32.40;41.10;;;;;;4941340;29;19911;-96
2023/05/06 14:05:42;;;;;;;;;;;32.10;41.40;;;;;;4940215;29;19911;-96
2023/05/06 14:08:11;;;;;;;;;;;31.90;41.00;;;;;;4940735;29;19914;-96
2023/05/06 14:10:37;;;;;;;;;;;31.80;42.70;;;;;;4941181;29;19895;-96
2023/05/06 14:13:06;;;;;;;;;;;32.10;41.60;;;;;;4958182;29;19926;-96
2023/05/06 14:15:35;;;;;;;;;;;32.50;39.10;;;;;;4940924;29;19911;-96
2023/05/06 14:18:04;;;;;;;;;;;32.70;38.80;;;;;;4939731;29;19910;-96
2023/05/06 14:20:31;;;;;;;;;;;32.30;39.90;;;;;;4939925;29;19911;-96
2023/05/06 14:22:57;;;;;;;;;;;32.10;38.30;;;;;;4940817;29;19911;-96
2023/05/06 14:25:26;;;;;;;;;;;31.90;39.30;;;;;;4941266;29;19918;-96
2023/05/06 14:27:58;;;;;;;;;;;32.30;37.90;;;;;;4941290;29;19902;-96
2023/05/06 14:30:26;;;;;;;;;;;32.70;39.20;;;;;;4941746;29;19911;-96
2023/05/06 14:33:02;;;;;;;;;;;32.80;40.20;;;;;;4942207;29;19911;-96
2023/05/06 14:35:29;;;;;;;;;;;33.10;38.50;;;;;;4942672;29;19922;-96
2023/05/06 14:38:02;;;;;;;;;;;33.40;39.90;;;;;;4958892;29;19923;-96
2023/05/06 14:40:37;;;;;;;;;;;33.70;37.90;;;;;;4942757;29;19962;-96
2023/05/06 14:43:18;;;;;;;;;;;34.10;39.60;;;;;;4959511;29;19918;-96
2023/05/06 14:45:59;;;;;;;;;;;34.60;37.50;;;;;;4938884;29;19966;-96
2023/05/06 14:48:30;;;;;;;;;;;34.80;35.60;;;;;;4943024;29;19965;-96
2023/05/06 14:51:01;;;;;;;;;;;34.50;37.40;;;;;;4942176;29;19918;-97
2023/05/06 14:53:27;;;;;;;;;;;34.10;37.70;;;;;;4940719;29;19918;-96
2023/05/06 14:55:55;;;;;;;;;;;33.90;38.30;;;;;;4940658;29;19915;-96
2023/05/06 14:58:24;;;;;;;;;;;33.80;37.70;;;;;;4940587;29;20016;-96
2023/05/06 15:00:51;;;;;;;;;;;33.50;36.90;;;;;;4956787;29;19915;-96
2023/05/06 15:03:19;;;;;;;;;;;33.20;39.00;;;;;;4939623;29;19902;-96
2023/05/06 15:05:46;;;;;;;;;;;32.60;36.50;;;;;;4938657;29;19911;-96
2023/05/06 15:08:14;;;;;;;;;;;32.10;37.30;;;;;;4955146;29;19953;-96
2023/05/06 15:10:40;;;;;;;;;;;31.70;40.30;;;;;;4923726;29;19921;-96
2023/05/06 15:13:06;;;;;;;;;;;31.40;37.90;;;;;;4941383;29;19910;-96
2023/05/06 15:15:32;;;;;;;;;;;31.30;38.80;;;;;;4942911;29;19911;-96
2023/05/06 15:18:01;;;;;;;;;;;30.90;41.80;;;;;;4960283;29;19911;-96
2023/05/06 15:20:36;;;;;;;;;;;30.70;41.50;;;;;;4960415;29;19918;-96
2023/05/06 15:23:05;;;;;;;;;;;30.60;39.90;;;;;;4943161;29;19918;-96
2023/05/06 15:25:32;;;;;;;;;;;30.60;41.70;;;;;;4943428;29;19911;-96
2023/05/06 15:27:59;;;;;;;;;;;30.40;41.80;;;;;;4942742;29;19915;-96
2023/05/06 15:30:25;;;;;;;;;;;30.20;43.50;;;;;;4943118;29;19970;-96
2023/05/06 15:33:02;;;;;;;;;;;30.20;41.80;;;;;;4943233;29;19895;-96
2023/05/06 15:35:30;;;;;;;;;;;30.30;41.80;;;;;;4943925;29;19914;-96
2023/05/06 15:37:57;;;;;;;;;;;30.70;40.60;;;;;;4943954;29;19923;-96
2023/05/06 15:40:28;;;;;;;;;;;30.70;39.20;;;;;;4943161;29;19930;-96
2023/05/06 15:42:55;;;;;;;;;;;30.40;39.90;;;;;;4943069;29;19934;-96
2023/05/06 15:45:26;;;;;;;;;;;30.20;41.30;;;;;;4943870;29;19907;-96
2023/05/06 15:48:04;;;;;;;;;;;30.10;43.40;;;;;;4944521;29;19910;-96
2023/05/06 15:50:30;;;;;;;;;;;30.10;41.60;;;;;;4943327;29;19987;-96
2023/05/06 15:52:57;;;;;;;;;;;29.90;42.10;;;;;;4943020;29;19941;-96
2023/05/06 15:55:24;;;;;;;;;;;29.80;44.90;;;;;;4943358;29;19915;-96
2023/05/06 15:57:53;;;;;;;;;;;29.60;47.20;;;;;;4943235;29;19910;-97
2023/05/06 16:00:20;;;;;;;;;;;29.50;47.00;;;;;;4943241;29;19919;-96
2023/05/06 16:02:46;;;;;;;;;;;29.40;47.80;;;;;;4943384;29;19911;-96
2023/05/06 16:05:12;;;;;;;;;;;29.40;47.00;;;;;;4942786;29;19911;-96
2023/05/06 16:07:39;;;;;;;;;;;29.20;47.50;;;;;;4942605;29;20287;-96
2023/05/06 16:10:09;;;;;;;;;;;29.20;47.80;;;;;;4942561;29;19915;-96
2023/05/06 16:12:36;;;;;;;;;;;29.00;48.60;;;;;;4942424;29;19918;-96
2023/05/06 16:15:03;;;;;;;;;;;28.80;47.30;;;;;;4941774;29;20001;-96
2023/05/06 16:17:36;;;;;;;;;;;28.70;47.90;;;;;;4942363;29;19911;-96
2023/05/06 16:20:05;;;;;;;;;;;28.60;47.50;;;;;;4959034;29;19915;-96
2023/05/06 16:22:35;;;;;;;;;;;28.40;49.00;;;;;;4942439;29;19911;-96
2023/05/06 16:25:07;;;;;;;;;;;28.30;48.70;;;;;;4958273;29;19918;-96
2023/05/06 16:27:36;;;;;;;;;;;28.10;49.50;;;;;;4940390;29;19911;-96
2023/05/06 16:30:07;;;;;;;;;;;27.90;50.10;;;;;;4940277;29;19911;-96
2023/05/06 16:32:33;;;;;;;;;;;27.80;49.40;;;;;;4941021;29;19970;-96
2023/05/06 16:34:59;;;;;;;;;;;27.50;49.50;;;;;;4957338;29;19958;-96
2023/05/06 16:37:28;;;;;;;;;;;27.20;49.80;;;;;;4941467;29;19927;-96
2023/05/06 16:40:00;;;;;;;;;;;27.10;51.70;;;;;;4941061;29;20019;-96
2023/05/06 16:42:26;;;;;;;;;;;26.90;52.70;;;;;;4941436;29;19918;-96
2023/05/06 16:44:53;;;;;;;;;;;26.80;52.80;;;;;;4941093;29;19993;-96
2023/05/06 16:47:22;;;;;;;;;;;26.70;52.50;;;;;;4940881;29;19915;-96
2023/05/06 16:49:48;;;;;;;;;;;26.60;53.20;;;;;;4940735;29;19927;-96
2023/05/06 16:52:17;;;;;;;;;;;26.50;53.80;;;;;;4956921;29;19911;-96
2023/05/06 16:54:43;;;;;;;;;;;26.50;52.90;;;;;;4941296;29;19910;-96
2023/05/06 16:57:10;;;;;;;;;;;26.40;54.20;;;;;;4940865;29;19918;-96
2023/05/06 16:59:39;;;;;;;;;;;26.30;53.30;;;;;;4940115;29;19915;-96
2023/05/06 17:02:06;;;;;;;;;;;26.20;53.80;;;;;;4940171;29;19918;-96
2023/05/06 17:04:37;;;;;;;;;;;26.10;54.00;;;;;;4940291;29;19917;-96
2023/05/06 17:07:05;;;;;;;;;;;25.90;55.00;;;;;;4956566;29;19911;-96
2023/05/06 17:09:32;;;;;;;;;;;25.80;55.40;;;;;;4939488;29;19917;-96
2023/05/06 17:12:01;;;;;;;;;;;25.70;56.30;;;;;;4939657;29;19975;-96
2023/05/06 17:14:27;;;;;;;;;;;25.70;56.90;;;;;;4939201;29;19911;-96
2023/05/06 17:16:55;;;;;;;;;;;25.50;56.20;;;;;;4939528;29;19914;-96
2023/05/06 17:19:21;;;;;;;;;;;25.30;56.10;;;;;;4940007;29;19915;-96
2023/05/06 17:21:47;;;;;;;;;;;25.20;56.50;;;;;;4940007;29;19927;-96
2023/05/06 17:24:16;;;;;;;;;;;25.00;56.20;;;;;;4940220;29;19917;-96
2023/05/06 17:26:42;;;;;;;;;;;24.90;56.50;;;;;;4939380;29;19918;-96
2023/05/06 17:29:08;;;;;;;;;;;24.80;55.70;;;;;;4939444;29;19973;-96
2023/05/06 17:31:34;;;;;;;;;;;24.70;56.20;;;;;;4939490;29;19982;-96